createdAt,value
2022-09-03T00:02:09.881Z,2.85
2022-09-03T00:04:44.205Z,3.05
2022-09-03T00:07:43.034Z,2.75
2022-09-03T00:10:18.244Z,3.17
2022-09-03T00:12:47.628Z,2.53
2022-09-03T00:15:21.010Z,2.90
2022-09-03T00:17:55.983Z,2.90
2022-09-03T00:20:37.562Z,3.03
2022-09-03T00:23:08.647Z,3.13
2022-09-03T00:25:42.611Z,2.75
2022-09-03T00:28:18.898Z,2.50
2022-09-03T00:30:54.004Z,2.50
2022-09-03T00:33:24.742Z,2.78
2022-09-03T00:36:03.726Z,2.50
2022-09-03T00:38:31.007Z,2.58
2022-09-03T00:41:17.898Z,2.78
2022-09-03T00:43:56.852Z,2.65
2022-09-03T00:46:38.439Z,2.53
2022-09-03T00:49:14.253Z,2.65
2022-09-03T00:51:51.416Z,2.65
2022-09-03T00:54:47.964Z,2.47
2022-09-03T00:57:41.663Z,2.58
2022-09-03T01:00:19.638Z,2.40
2022-09-03T01:03:08.032Z,2.65
2022-09-03T01:05:52.412Z,3.00
2022-09-03T01:08:42.233Z,2.75
2022-09-03T01:11:36.968Z,2.22
2022-09-03T01:14:24.247Z,2.40
2022-09-03T01:16:58.642Z,2.88
2022-09-03T01:19:35.714Z,2.20
2022-09-03T01:22:17.940Z,2.42
2022-09-03T01:25:07.965Z,2.35
2022-09-03T01:27:44.689Z,2.53
2022-09-03T01:30:18.426Z,2.50
2022-09-03T01:33:12.336Z,2.63
2022-09-03T01:35:49.159Z,2.22
2022-09-03T01:38:36.956Z,2.20
2022-09-03T01:41:23.662Z,2.30
2022-09-03T01:44:30.121Z,1.80
2022-09-03T01:47:15.006Z,2.20
2022-09-03T01:49:57.883Z,2.00
2022-09-03T01:52:46.254Z,2.00
2022-09-03T01:55:26.901Z,2.20
2022-09-03T01:57:58.881Z,2.03
2022-09-03T02:00:28.075Z,1.85
2022-09-03T02:02:55.216Z,1.73
2022-09-03T02:05:27.699Z,2.10
2022-09-03T02:08:00.192Z,2.50
2022-09-03T02:10:43.554Z,2.05
2022-09-03T02:13:26.669Z,2.17
2022-09-03T02:15:56.487Z,2.30
2022-09-03T02:18:28.755Z,2.03
2022-09-03T02:20:56.299Z,2.42
2022-09-03T02:23:24.716Z,2.00
2022-09-03T02:26:00.349Z,2.17
2022-09-03T02:28:29.469Z,2.40
2022-09-03T02:30:57.146Z,2.03
2022-09-03T02:33:24.322Z,2.20
2022-09-03T02:35:52.014Z,1.90
2022-09-03T02:38:21.837Z,2.10
2022-09-03T02:40:48.732Z,1.98
2022-09-03T02:43:23.862Z,1.90
2022-09-03T02:45:57.228Z,2.10
2022-09-03T02:48:24.940Z,2.15
2022-09-03T02:50:52.056Z,2.20
2022-09-03T02:53:19.219Z,1.95
2022-09-03T02:55:46.062Z,1.83
2022-09-03T02:58:13.096Z,2.00
2022-09-03T03:00:40.067Z,1.73
2022-09-03T03:03:07.548Z,2.35
2022-09-03T03:05:55.601Z,2.45
2022-09-03T03:08:26.030Z,2.22
2022-09-03T03:10:54.160Z,2.45
2022-09-03T03:13:21.007Z,2.45
2022-09-03T03:15:48.922Z,2.65
2022-09-03T03:18:17.436Z,2.40
2022-09-03T03:20:44.693Z,2.45
2022-09-03T03:23:11.694Z,2.58
2022-09-03T03:25:39.722Z,2.92
2022-09-03T03:28:08.026Z,2.80
2022-09-03T03:30:39.865Z,3.00
2022-09-03T03:33:07.382Z,3.20
2022-09-03T03:35:34.249Z,2.53
2022-09-03T03:38:01.113Z,2.60
2022-09-03T03:40:28.160Z,2.40
2022-09-03T03:42:57.412Z,2.95
2022-09-03T03:45:24.284Z,2.65
2022-09-03T03:47:51.086Z,3.00
2022-09-03T03:50:17.986Z,3.08
2022-09-03T03:52:44.858Z,3.03
2022-09-03T03:55:11.936Z,2.97
2022-09-03T03:57:42.719Z,3.13
2022-09-03T04:00:10.206Z,2.70
2022-09-03T04:02:39.194Z,2.63
2022-09-03T04:05:06.697Z,2.30
2022-09-03T04:07:35.049Z,2.47
2022-09-03T04:10:02.112Z,2.20
2022-09-03T04:12:28.940Z,2.30
2022-09-03T04:14:55.775Z,2.30
2022-09-03T04:17:25.265Z,2.22
2022-09-03T04:19:52.435Z,2.40
2022-09-03T04:22:20.748Z,2.15
2022-09-03T04:24:47.641Z,2.20
2022-09-03T04:27:14.505Z,2.03
2022-09-03T04:29:41.490Z,2.35
2022-09-03T04:32:26.717Z,1.95
2022-09-03T04:34:53.514Z,1.75
2022-09-03T04:37:20.361Z,2.00
2022-09-03T04:39:47.352Z,1.83
2022-09-03T04:42:14.267Z,2.03
2022-09-03T04:44:41.366Z,2.13
2022-09-03T04:47:08.333Z,1.98
2022-09-03T04:49:35.200Z,2.20
2022-09-03T04:52:03.354Z,1.90
2022-09-03T04:54:30.171Z,2.20
2022-09-03T04:56:57.261Z,2.22
2022-09-03T04:59:24.321Z,2.00
2022-09-03T05:01:52.728Z,2.20
2022-09-03T05:04:19.837Z,1.92
2022-09-03T05:06:46.766Z,2.03
2022-09-03T05:09:13.559Z,2.47
2022-09-03T05:11:40.418Z,2.40
2022-09-03T05:14:07.269Z,2.47
2022-09-03T05:16:34.166Z,2.13
2022-09-03T05:19:01.593Z,2.08
2022-09-03T05:21:29.957Z,2.20
2022-09-03T05:23:57.049Z,2.20
2022-09-03T05:26:26.742Z,2.45
2022-09-03T05:28:56.201Z,2.20
2022-09-03T05:31:26.440Z,2.03
2022-09-03T05:33:57.774Z,2.28
2022-09-03T05:36:26.929Z,2.45
2022-09-03T05:38:58.429Z,2.33
2022-09-03T05:41:26.996Z,2.42
2022-09-03T05:43:56.204Z,2.50
2022-09-03T05:46:31.800Z,2.05
2022-09-03T05:49:00.593Z,1.92
2022-09-03T05:51:27.895Z,2.10
2022-09-03T05:53:55.662Z,2.10
2022-09-03T05:56:25.533Z,1.98
2022-09-03T05:58:58.802Z,1.92
2022-09-03T06:01:31.732Z,2.28
2022-09-03T06:04:10.680Z,2.22
2022-09-03T06:06:40.295Z,1.98
2022-09-03T06:09:10.738Z,2.30
2022-09-03T06:11:39.484Z,2.30
2022-09-03T06:14:09.303Z,1.90
2022-09-03T06:16:39.092Z,2.00
2022-09-03T06:19:10.843Z,2.00
2022-09-03T06:24:08.452Z,1.80
2022-09-03T06:26:36.108Z,1.70
2022-09-03T06:29:03.002Z,2.22
2022-09-03T06:31:30.024Z,1.73
2022-09-03T06:34:01.993Z,1.70
2022-09-03T06:36:30.965Z,1.40
2022-09-03T06:38:58.462Z,1.80
2022-09-03T06:41:32.394Z,1.75
2022-09-03T06:44:11.359Z,1.30
2022-09-03T06:46:42.244Z,1.40
2022-09-03T06:49:10.143Z,1.73
2022-09-03T06:51:38.893Z,1.70
2022-09-03T06:54:08.231Z,1.92
2022-09-03T06:56:40.345Z,1.48
2022-09-03T06:59:15.124Z,1.60
2022-09-03T07:01:45.477Z,1.80
2022-09-03T07:04:16.210Z,1.67
2022-09-03T07:06:44.234Z,22.42
2022-09-03T07:09:12.534Z,15.48
2022-09-03T07:11:46.798Z,2.17
2022-09-03T07:14:14.964Z,2.60
2022-09-03T07:16:43.190Z,2.40
2022-09-03T07:19:10.727Z,10.57
2022-09-03T07:21:37.901Z,2.30
2022-09-03T07:24:06.049Z,2.35
2022-09-03T07:26:36.723Z,2.33
2022-09-03T07:29:04.345Z,3.05
2022-09-03T07:31:35.376Z,3.40
2022-09-03T07:34:11.628Z,1.80
2022-09-03T07:36:41.569Z,1.95
2022-09-03T07:39:09.701Z,2.40
2022-09-03T07:41:37.522Z,1.80
2022-09-03T07:44:07.771Z,1.90
2022-09-03T07:46:37.249Z,2.25
2022-09-03T07:49:06.182Z,2.25
2022-09-03T07:51:37.777Z,2.17
2022-09-03T07:54:07.542Z,1.20
2022-09-03T07:56:36.059Z,1.30
2022-09-03T07:59:04.157Z,1.80
2022-09-03T08:01:32.884Z,1.67
2022-09-03T08:04:00.738Z,1.92
2022-09-03T08:06:29.715Z,1.83
2022-09-03T08:09:04.836Z,1.63
2022-09-03T08:11:43.373Z,1.70
2022-09-03T08:14:12.579Z,1.50
2022-09-03T08:16:44.288Z,3.50
2022-09-03T08:19:12.053Z,2.10
2022-09-03T08:21:41.805Z,1.70
2022-09-03T08:24:08.799Z,2.45
2022-09-03T08:26:37.668Z,1.38
2022-09-03T08:29:05.738Z,1.60
2022-09-03T08:31:33.752Z,1.30
2022-09-03T08:34:06.933Z,1.40
2022-09-03T08:36:38.943Z,1.60
2022-09-03T08:39:10.022Z,1.50
2022-09-03T08:41:43.516Z,1.30
2022-09-03T08:44:31.387Z,1.48
2022-09-03T08:47:33.028Z,1.50
2022-09-03T08:52:53.252Z,1.70
2022-09-03T08:55:25.119Z,1.50
2022-09-03T08:58:14.950Z,1.83
2022-09-03T09:01:03.195Z,1.30
2022-09-03T09:03:53.159Z,1.65
2022-09-03T09:06:54.272Z,1.73
2022-09-03T09:09:24.542Z,1.67
2022-09-03T09:12:09.375Z,1.80
2022-09-03T09:14:40.278Z,1.67
2022-09-03T09:17:22.719Z,1.42
2022-09-03T09:20:36.405Z,1.20
2022-09-03T09:23:09.226Z,1.58
2022-09-03T09:25:51.160Z,1.38
2022-09-03T09:28:30.685Z,1.17
2022-09-03T09:30:57.760Z,1.20
2022-09-03T09:33:25.606Z,1.20
2022-09-03T09:35:52.461Z,1.10
2022-09-03T09:38:31.099Z,1.65
2022-09-03T09:41:13.230Z,2.22
2022-09-03T09:43:40.594Z,1.60
2022-09-03T09:46:14.165Z,1.17
2022-09-03T09:48:53.949Z,1.20
2022-09-03T09:51:25.083Z,1.27
2022-09-03T09:54:27.986Z,1.42
2022-09-03T09:57:06.411Z,1.33
2022-09-03T09:59:34.583Z,1.55
2022-09-03T10:02:22.319Z,1.63
2022-09-03T10:04:52.797Z,1.60
2022-09-03T10:07:33.034Z,1.60
2022-09-03T10:10:07.475Z,1.60
2022-09-03T10:12:42.101Z,1.20
2022-09-03T10:15:28.009Z,1.30
2022-09-03T10:18:17.353Z,1.52
2022-09-03T10:21:05.070Z,1.40
2022-09-03T10:23:54.928Z,1.20
2022-09-03T10:26:29.150Z,1.67
2022-09-03T10:29:05.754Z,1.40
2022-09-03T10:32:07.754Z,1.23
2022-09-03T10:34:35.144Z,1.48
2022-09-03T10:37:34.422Z,1.10
2022-09-03T10:40:13.803Z,1.30
2022-09-03T10:43:06.889Z,1.30
2022-09-03T10:46:01.447Z,1.20
2022-09-03T10:48:40.192Z,1.38
2022-09-03T10:51:15.144Z,1.15
2022-09-03T10:54:06.173Z,1.42
2022-09-03T10:57:07.948Z,1.23
2022-09-03T10:59:51.490Z,1.05
2022-09-03T11:02:33.486Z,1.10
2022-09-03T11:05:16.222Z,1.33
2022-09-03T11:08:03.586Z,1.00
2022-09-03T11:10:42.401Z,1.10
2022-09-03T11:13:13.456Z,1.40
2022-09-03T11:15:43.302Z,1.17
2022-09-03T11:18:29.369Z,1.70
2022-09-03T11:21:01.513Z,1.02
2022-09-03T11:23:31.113Z,1.20
2022-09-03T11:26:02.298Z,1.10
2022-09-03T11:31:50.683Z,1.02
2022-09-03T11:34:32.533Z,1.40
2022-09-03T11:37:30.043Z,1.40
2022-09-03T11:40:06.908Z,1.35
2022-09-03T11:42:39.503Z,1.10
2022-09-03T11:45:35.051Z,1.33
2022-09-03T11:48:02.067Z,1.27
2022-09-03T11:50:31.152Z,1.40
2022-09-03T11:53:24.427Z,1.30
2022-09-03T11:56:15.842Z,1.10
2022-09-03T12:01:22.832Z,1.30
2022-09-03T12:03:58.182Z,1.60
2022-09-03T12:06:43.525Z,1.35
2022-09-03T12:09:34.559Z,1.30
2022-09-03T12:12:23.886Z,1.40
2022-09-03T12:15:08.760Z,1.20
2022-09-03T12:17:47.492Z,1.48
2022-09-03T12:20:16.136Z,1.15
2022-09-03T12:22:43.204Z,1.50
2022-09-03T12:25:14.923Z,1.42
2022-09-03T12:27:45.048Z,1.42
2022-09-03T12:30:19.088Z,1.30
2022-09-03T12:32:46.492Z,1.10
2022-09-03T12:38:08.818Z,1.40
2022-09-03T12:43:39.167Z,1.70
2022-09-03T12:46:15.292Z,1.25
2022-09-03T12:51:50.810Z,1.30
2022-09-03T12:54:20.331Z,1.40
2022-09-03T12:56:56.471Z,1.33
2022-09-03T12:59:25.079Z,1.90
2022-09-03T13:01:57.050Z,1.48
2022-09-03T13:04:27.609Z,1.50
2022-09-03T13:07:14.651Z,1.50
2022-09-03T13:09:42.347Z,1.40
2022-09-03T13:12:28.459Z,1.48
2022-09-03T13:14:57.092Z,1.52
2022-09-03T13:17:45.155Z,1.40
2022-09-03T13:20:42.799Z,1.50
2022-09-03T13:23:32.137Z,1.38
2022-09-03T13:26:08.060Z,1.40
2022-09-03T13:29:06.459Z,1.40
2022-09-03T13:31:40.930Z,1.50
2022-09-03T13:34:23.167Z,1.40
2022-09-03T13:37:04.639Z,1.80
2022-09-03T13:39:41.480Z,1.58
2022-09-03T13:42:22.997Z,1.55
2022-09-03T13:45:00.416Z,1.52
2022-09-03T13:48:14.822Z,1.40
2022-09-03T13:50:57.710Z,1.30
2022-09-03T13:53:44.620Z,1.50
2022-09-03T13:56:40.347Z,1.60
2022-09-03T13:59:28.143Z,1.60
2022-09-03T14:02:41.055Z,1.55
2022-09-03T14:05:17.897Z,1.45
2022-09-03T14:08:14.083Z,1.70
2022-09-03T14:10:59.752Z,1.70
2022-09-03T14:14:01.904Z,1.70
2022-09-03T14:16:34.596Z,1.92
2022-09-03T14:19:12.926Z,1.67
2022-09-03T14:21:50.375Z,1.60
2022-09-03T14:24:21.706Z,1.40
2022-09-03T14:26:57.758Z,1.30
2022-09-03T14:29:30.992Z,1.50
2022-09-03T14:32:15.007Z,1.83
2022-09-03T14:34:47.990Z,1.70
2022-09-03T14:37:17.874Z,1.63
2022-09-03T14:39:59.869Z,1.52
2022-09-03T14:42:41.518Z,1.60
2022-09-03T14:45:20.101Z,1.55
2022-09-03T14:48:04.947Z,1.48
2022-09-03T14:50:50.449Z,1.85
2022-09-03T14:53:40.416Z,1.50
2022-09-03T14:56:48.412Z,1.30
2022-09-03T14:59:44.221Z,2.05
2022-09-03T15:02:16.923Z,1.50
2022-09-03T15:05:02.115Z,1.45
2022-09-03T15:07:48.373Z,1.90
2022-09-03T15:10:47.692Z,1.30
2022-09-03T15:13:26.126Z,2.00
2022-09-03T15:16:02.155Z,2.08
2022-09-03T15:18:53.745Z,1.80
2022-09-03T15:21:32.107Z,1.50
2022-09-03T15:24:27.920Z,1.60
2022-09-03T15:27:17.726Z,1.48
2022-09-03T15:30:07.783Z,1.60
2022-09-03T15:32:55.676Z,1.65
2022-09-03T15:35:53.328Z,1.58
2022-09-03T15:38:36.603Z,1.40
2022-09-03T15:41:09.806Z,1.98
2022-09-03T15:43:38.558Z,1.75
2022-09-03T15:46:32.293Z,1.75
2022-09-03T15:49:16.942Z,1.92
2022-09-03T15:51:50.352Z,1.90
2022-09-03T15:54:27.157Z,1.77
2022-09-03T15:57:09.257Z,1.90
2022-09-03T16:00:07.631Z,2.10
2022-09-03T16:02:43.342Z,2.03
2022-09-03T16:05:42.595Z,2.10
2022-09-03T16:08:24.415Z,2.15
2022-09-03T16:11:16.624Z,2.13
2022-09-03T16:14:10.978Z,2.10
2022-09-03T16:16:42.441Z,1.92
2022-09-03T16:19:16.914Z,4.57
2022-09-03T16:21:50.306Z,4.93
2022-09-03T16:24:24.214Z,3.90
2022-09-03T16:27:04.426Z,2.45
2022-09-03T16:29:31.948Z,2.45
2022-09-03T16:32:04.913Z,1.95
2022-09-03T16:35:04.219Z,2.20
2022-09-03T16:37:52.191Z,2.10
2022-09-03T16:40:45.794Z,2.45
2022-09-03T16:43:44.250Z,2.05
2022-09-03T16:46:35.075Z,2.17
2022-09-03T16:49:28.073Z,2.28
2022-09-03T16:52:13.641Z,2.45
2022-09-03T16:54:57.244Z,2.03
2022-09-03T16:57:36.245Z,2.40
2022-09-03T17:00:14.743Z,2.40
2022-09-03T17:02:59.907Z,2.85
2022-09-03T17:05:44.909Z,2.45
2022-09-03T17:08:31.204Z,2.65
2022-09-03T17:11:13.110Z,4.00
2022-09-03T17:14:12.048Z,2.47
2022-09-03T17:16:56.134Z,2.47
2022-09-03T17:19:25.872Z,2.28
2022-09-03T17:21:55.756Z,2.30
2022-09-03T17:24:42.766Z,2.78
2022-09-03T17:27:48.551Z,2.53
2022-09-03T17:30:47.938Z,2.90
2022-09-03T17:33:46.988Z,3.30
2022-09-03T17:36:26.960Z,3.28
2022-09-03T17:39:08.718Z,3.60
2022-09-03T17:41:55.133Z,4.45
2022-09-03T17:44:24.903Z,3.30
2022-09-03T17:47:32.992Z,3.47
2022-09-03T17:50:14.095Z,4.25
2022-09-03T17:52:46.205Z,3.80
2022-09-03T17:55:36.407Z,4.13
2022-09-03T17:58:09.265Z,4.05
2022-09-03T18:01:04.251Z,4.53
2022-09-03T18:03:41.235Z,4.53
2022-09-03T18:06:37.585Z,5.10
2022-09-03T18:09:16.581Z,4.40
2022-09-03T18:12:04.548Z,4.55
2022-09-03T18:14:49.029Z,5.10
2022-09-03T18:17:18.582Z,4.57
2022-09-03T18:20:21.538Z,4.70
2022-09-03T18:23:39.522Z,4.68
2022-09-03T18:26:39.062Z,4.43
2022-09-03T18:29:35.338Z,4.40
2022-09-03T18:32:20.758Z,4.03
2022-09-03T18:35:06.476Z,3.38
2022-09-03T18:37:51.983Z,3.25
2022-09-03T18:40:44.690Z,3.38
2022-09-03T18:44:01.512Z,3.70
2022-09-03T18:50:37.918Z,3.60
2022-09-03T18:53:49.141Z,3.00
2022-09-03T18:56:58.541Z,3.25
2022-09-03T18:59:43.834Z,4.20
2022-09-03T19:03:05.262Z,4.60
2022-09-03T19:06:22.679Z,4.35
2022-09-03T19:09:23.877Z,4.18
2022-09-03T19:12:30.103Z,4.60
2022-09-03T19:15:24.638Z,4.00
2022-09-03T19:18:34.302Z,4.28
2022-09-03T19:22:00.051Z,4.30
2022-09-03T19:24:49.288Z,4.78
2022-09-03T19:27:55.672Z,4.07
2022-09-03T19:31:04.633Z,4.22
2022-09-03T19:34:19.006Z,4.47
2022-09-03T19:37:42.036Z,4.90
2022-09-03T19:40:57.556Z,4.80
2022-09-03T19:44:06.898Z,4.93
2022-09-03T19:47:15.444Z,4.95
2022-09-03T19:50:17.541Z,4.70
2022-09-03T19:53:27.780Z,4.82
2022-09-03T19:56:15.733Z,4.55
2022-09-03T19:59:08.182Z,4.43
2022-09-03T20:01:56.124Z,4.63
2022-09-03T20:04:54.607Z,4.90
2022-09-03T20:07:40.005Z,4.80
2022-09-03T20:10:23.446Z,5.13
2022-09-03T20:13:17.315Z,4.45
2022-09-03T20:15:53.575Z,4.30
2022-09-03T20:18:26.588Z,4.50
2022-09-03T20:21:22.290Z,4.85
2022-09-03T20:24:11.087Z,4.57
2022-09-03T20:26:59.889Z,4.32
2022-09-03T20:29:53.057Z,4.70
2022-09-03T20:32:22.793Z,4.82
2022-09-03T20:35:17.810Z,4.80
2022-09-03T20:37:55.847Z,4.53
2022-09-03T20:40:49.592Z,4.85
2022-09-03T20:43:36.272Z,4.50
2022-09-03T20:46:47.579Z,4.85
2022-09-03T20:49:51.909Z,4.47
2022-09-03T20:52:26.211Z,4.57
2022-09-03T20:55:11.121Z,4.20
2022-09-03T20:57:54.847Z,4.72
2022-09-03T21:00:23.260Z,5.22
2022-09-03T21:03:08.596Z,5.15
2022-09-03T21:05:43.588Z,4.90
2022-09-03T21:08:37.431Z,4.47
2022-09-03T21:11:30.082Z,4.88
2022-09-03T21:14:22.750Z,4.85
2022-09-03T21:17:10.075Z,5.05
2022-09-03T21:19:45.630Z,5.25
2022-09-03T21:22:38.032Z,5.28
2022-09-03T21:25:45.889Z,5.00
2022-09-03T21:28:22.744Z,5.15
2022-09-03T21:30:58.380Z,5.18
2022-09-03T21:33:36.983Z,4.93
2022-09-03T21:36:11.872Z,5.03
2022-09-03T21:38:46.349Z,5.00
2022-09-03T21:41:38.221Z,4.97
2022-09-03T21:44:40.686Z,4.82
2022-09-03T21:47:13.084Z,4.63
2022-09-03T21:49:57.913Z,5.10
2022-09-03T21:52:34.815Z,5.45
2022-09-03T21:55:19.166Z,4.53
2022-09-03T21:58:04.337Z,4.80
2022-09-03T22:00:32.717Z,4.75
2022-09-03T22:03:00.752Z,5.38
2022-09-03T22:05:46.083Z,4.85
2022-09-03T22:08:31.151Z,5.13
2022-09-03T22:11:10.546Z,5.05
2022-09-03T22:14:01.349Z,5.55
2022-09-03T22:16:33.122Z,5.40
2022-09-03T22:19:00.014Z,5.25
2022-09-03T22:22:00.175Z,5.45
2022-09-03T22:24:39.174Z,6.30
2022-09-03T22:27:20.435Z,5.40
2022-09-03T22:30:07.594Z,5.53
2022-09-03T22:33:03.348Z,5.60
2022-09-03T22:36:07.874Z,5.70
2022-09-03T22:39:16.240Z,5.57
2022-09-03T22:42:18.710Z,6.78
2022-09-03T22:45:17.149Z,6.53
2022-09-03T22:47:53.106Z,6.05
2022-09-03T22:50:46.062Z,6.72
2022-09-03T22:53:27.626Z,6.53
2022-09-03T22:56:14.781Z,6.15
2022-09-03T22:59:01.182Z,5.90
2022-09-03T23:01:34.722Z,5.75
2022-09-03T23:04:22.269Z,6.00
2022-09-03T23:06:59.166Z,6.60
2022-09-03T23:09:33.606Z,6.30
2022-09-03T23:12:04.306Z,6.50
2022-09-03T23:14:41.419Z,6.00
2022-09-03T23:17:16.248Z,6.15
2022-09-03T23:19:51.744Z,6.07
2022-09-03T23:22:48.246Z,6.43
2022-09-03T23:25:20.317Z,5.93
2022-09-03T23:27:59.908Z,6.75
2022-09-03T23:30:26.908Z,6.60
2022-09-03T23:32:58.279Z,7.07
2022-09-03T23:35:34.556Z,6.60
2022-09-03T23:38:16.774Z,6.78
2022-09-03T23:40:57.940Z,6.68
2022-09-03T23:43:40.007Z,7.20
2022-09-03T23:46:06.765Z,7.57
2022-09-03T23:48:52.461Z,7.15
2022-09-03T23:51:54.263Z,6.47
2022-09-03T23:54:32.723Z,6.88
2022-09-03T23:57:31.747Z,7.20
